Friday, May 25, 2018, 9:01 AM EDT
Back to Local

KACY, Atlantic City International

Location: Absecon, NJ, United States Lat: 39.467
Local Time: 9:01 AM EDT (13:01 GMT) Lon: -74.583
Time Zone: US/Eastern Elev: 75 ft

Show me the last for .
Show Decoded

2018-05-25 07:54 METAR KACY 251154Z 24008KT 10SM CLR 21/17 A3010 RMK AO2 SLP191 T02110167 10211
                 20128 50003 =
2018-05-25 06:54 METAR KACY 251054Z 24003KT 10SM CLR 17/15 A3011 RMK AO2 SLP194 T01670150 =
2018-05-25 05:54 METAR KACY 250954Z 00000KT 10SM CLR 15/13 A3010 RMK AO2 SLP190 T01500133 =
2018-05-25 04:54 METAR KACY 250854Z 00000KT 10SM CLR 15/14 A3009 RMK AO2 SLP188 T01500139 56012 =
2018-05-25 03:54 METAR KACY 250754Z 22003KT 10SM CLR 16/14 A3010 RMK AO2 SLP191 T01560139 =
2018-05-25 02:54 METAR KACY 250654Z 00000KT 10SM CLR 16/13 A3011 RMK AO2 SLP194 T01560128 =
2018-05-25 01:54 METAR KACY 250554Z 00000KT 10SM CLR 17/13 A3012 RMK AO2 SLP199 T01720128 10211
                 20167 58007 =
2018-05-25 00:54 METAR KACY 250454Z 21004KT 10SM CLR 18/13 A3013 RMK AO2 SLP203 T01780128
                 402830144 =
2018-05-24 23:54 METAR KACY 250354Z 20004KT 10SM CLR 17/12 A3014 RMK AO2 SLP206 T01720122 =
2018-05-24 22:54 METAR KACY 250254Z 20004KT 10SM CLR 18/12 A3014 RMK AO2 SLP207 T01780117 50005 =
2018-05-24 21:54 METAR KACY 250154Z 18005KT 10SM CLR 18/12 A3014 RMK AO2 SLP207 T01830117 =
2018-05-24 20:54 METAR KACY 250054Z 19004KT 10SM CLR 19/11 A3014 RMK AO2 SLP204 T01940111 =
2018-05-24 19:54 METAR KACY 242354Z 20007KT 10SM CLR 21/10 A3013 RMK AO2 SLP201 T02110100 10272
                 20211 55002 =
2018-05-24 18:54 METAR KACY 242254Z 18007KT 10SM CLR 23/06 A3013 RMK AO2 SLP201 T02330056 =
2018-05-24 17:54 METAR KACY 242154Z 17009KT 10SM CLR 24/01 A3013 RMK AO2 SLP203 T02390011 =
2018-05-24 16:54 METAR KACY 242054Z 16011KT 10SM CLR 25/06 A3013 RMK AO2 SLP203 T02500056 58002 =
2018-05-24 15:54 METAR KACY 241954Z 16009KT 10SM CLR 26/07 A3014 RMK AO2 SLP205 T02610072 =
2018-05-24 14:54 METAR KACY 241854Z 11010KT 10SM CLR 27/05 A3014 RMK AO2 SLP206 T02670050 =
2018-05-24 13:54 METAR KACY 241754Z 13009KT 10SM CLR 27/10 A3014 RMK AO2 SLP205 T02720100 10283
                 20211 55003 =
2018-05-24 12:54 METAR KACY 241654Z 32005KT 10SM CLR 28/06 A3014 RMK AO2 SLP204 T02830061 =
2018-05-24 11:54 METAR KACY 241554Z 36008G19KT 10SM CLR 27/08 A3015 RMK AO2 SLP208 T02720078 =
2018-05-24 10:54 METAR KACY 241454Z 02010G16KT 10SM CLR 26/11 A3015 RMK AO2 SLP207 T02610111
                 51006 =
2018-05-24 09:54 METAR KACY 241354Z 35008KT 10SM CLR 24/13 A3014 RMK AO2 SLP206 T02440133 =

Support USWX by starting your Amazon purchase here.